createdAt,value
2024-01-08T00:00:20.262Z,5.13
2024-01-08T00:02:47.911Z,5.80
2024-01-08T00:05:16.689Z,4.55
2024-01-08T00:07:44.609Z,4.40
2024-01-08T00:10:12.273Z,4.10
2024-01-08T00:12:39.780Z,4.28
2024-01-08T00:15:09.187Z,3.55
2024-01-08T00:17:36.822Z,3.88
2024-01-08T00:20:04.871Z,4.07
2024-01-08T00:22:32.585Z,3.67
2024-01-08T00:25:00.279Z,3.50
2024-01-08T00:27:27.886Z,3.55
2024-01-08T00:29:55.446Z,3.67
2024-01-08T00:32:23.297Z,3.03
2024-01-08T00:34:50.903Z,3.22
2024-01-08T00:37:18.500Z,3.03
2024-01-08T00:39:46.113Z,2.55
2024-01-08T00:42:13.646Z,2.85
2024-01-08T00:44:41.324Z,2.75
2024-01-08T00:47:08.971Z,3.05
2024-01-08T00:49:36.538Z,2.63
2024-01-08T00:52:04.373Z,2.70
2024-01-08T00:54:32.085Z,2.70
2024-01-08T00:56:59.716Z,2.30
2024-01-08T00:59:27.477Z,3.40
2024-01-08T01:01:55.167Z,2.90
2024-01-08T01:04:22.867Z,2.50
2024-01-08T01:06:50.465Z,2.40
2024-01-08T01:09:18.242Z,3.10
2024-01-08T01:11:45.979Z,2.33
2024-01-08T01:14:13.885Z,2.70
2024-01-08T01:16:41.426Z,2.58
2024-01-08T01:19:09.188Z,3.03
2024-01-08T01:21:36.837Z,2.45
2024-01-08T01:24:06.057Z,2.67
2024-01-08T01:26:33.774Z,2.63
2024-01-08T01:29:01.413Z,2.00
2024-01-08T01:31:28.994Z,2.45
2024-01-08T01:33:56.734Z,2.33
2024-01-08T01:36:24.301Z,2.00
2024-01-08T01:38:51.961Z,2.65
2024-01-08T01:41:19.502Z,2.33
2024-01-08T01:43:47.137Z,2.40
2024-01-08T01:46:47.908Z,2.25
2024-01-08T01:49:17.522Z,2.72
2024-01-08T01:51:46.757Z,2.47
2024-01-08T01:54:19.757Z,2.70
2024-01-08T01:56:54.418Z,2.10
2024-01-08T01:59:22.701Z,2.72
2024-01-08T02:01:50.966Z,2.00
2024-01-08T02:04:19.399Z,2.50
2024-01-08T02:06:47.222Z,2.22
2024-01-08T02:09:15.016Z,2.63
2024-01-08T02:11:43.248Z,2.33
2024-01-08T02:14:12.048Z,2.33
2024-01-08T02:16:40.825Z,2.00
2024-01-08T02:19:09.732Z,2.00
2024-01-08T02:21:37.970Z,2.20
2024-01-08T02:24:06.970Z,2.20
2024-01-08T02:26:35.726Z,2.13
2024-01-08T02:29:03.614Z,2.20
2024-01-08T02:31:32.088Z,2.20
2024-01-08T02:33:59.698Z,2.10
2024-01-08T02:36:27.325Z,2.38
2024-01-08T02:38:55.020Z,2.40
2024-01-08T02:41:22.659Z,2.05
2024-01-08T02:43:50.294Z,2.22
2024-01-08T02:46:18.017Z,2.38
2024-01-08T02:48:45.666Z,2.08
2024-01-08T02:51:15.046Z,2.22
2024-01-08T02:53:42.720Z,2.22
2024-01-08T02:56:22.479Z,2.40
2024-01-08T02:58:50.612Z,2.00
2024-01-08T03:01:18.284Z,2.20
2024-01-08T03:03:46.019Z,2.20
2024-01-08T03:06:13.593Z,1.90
2024-01-08T03:08:41.231Z,1.85
2024-01-08T03:11:09.378Z,1.80
2024-01-08T03:13:36.934Z,2.15
2024-01-08T03:16:05.084Z,1.90
2024-01-08T03:18:34.035Z,2.10
2024-01-08T03:21:02.670Z,2.25
2024-01-08T03:23:30.278Z,1.83
2024-01-08T03:25:57.933Z,2.10
2024-01-08T03:28:25.474Z,2.00
2024-01-08T03:30:53.379Z,2.38
2024-01-08T03:33:20.957Z,1.85
2024-01-08T03:35:48.949Z,2.40
2024-01-08T03:38:16.734Z,2.00
2024-01-08T03:40:45.535Z,2.22
2024-01-08T03:43:13.561Z,1.90
2024-01-08T03:45:41.150Z,2.15
2024-01-08T03:48:08.796Z,1.70
2024-01-08T03:50:36.641Z,2.00
2024-01-08T03:53:04.575Z,2.08
2024-01-08T03:55:35.096Z,1.58
2024-01-08T03:58:03.097Z,2.03
2024-01-08T04:00:30.808Z,1.75
2024-01-08T04:02:58.476Z,2.17
2024-01-08T04:05:26.165Z,2.00
2024-01-08T04:07:53.808Z,1.80
2024-01-08T04:10:21.364Z,1.70
2024-01-08T04:12:48.951Z,1.85
2024-01-08T04:15:16.534Z,1.80
2024-01-08T04:17:44.294Z,1.88
2024-01-08T04:20:12.499Z,1.98
2024-01-08T04:22:41.121Z,1.80
2024-01-08T04:25:08.982Z,2.00
2024-01-08T04:27:36.957Z,1.77
2024-01-08T04:30:05.053Z,1.85
2024-01-08T04:32:32.784Z,1.70
2024-01-08T04:35:00.379Z,1.77
2024-01-08T04:37:28.085Z,1.83
2024-01-08T04:39:55.687Z,1.77
2024-01-08T04:42:23.370Z,1.92
2024-01-08T04:44:50.990Z,2.00
2024-01-08T04:47:18.593Z,1.70
2024-01-08T04:49:46.134Z,2.00
2024-01-08T04:52:13.839Z,1.70
2024-01-08T04:54:44.494Z,2.08
2024-01-08T04:57:12.214Z,1.75
2024-01-08T04:59:43.310Z,1.90
2024-01-08T05:02:11.839Z,2.10
2024-01-08T05:04:39.501Z,1.80
2024-01-08T05:07:07.101Z,2.15
2024-01-08T05:09:34.773Z,1.92
2024-01-08T05:12:02.346Z,1.85
2024-01-08T05:14:29.856Z,2.30
2024-01-08T05:16:57.674Z,1.70
2024-01-08T05:19:26.152Z,1.85
2024-01-08T05:21:54.378Z,2.00
2024-01-08T05:24:21.954Z,2.17
2024-01-08T05:26:49.564Z,1.85
2024-01-08T05:29:17.415Z,1.98
2024-01-08T05:31:45.272Z,2.38
2024-01-08T05:34:12.886Z,2.15
2024-01-08T05:36:43.195Z,2.38
2024-01-08T05:39:10.702Z,2.33
2024-01-08T05:41:44.451Z,1.85
2024-01-08T05:44:12.193Z,1.90
2024-01-08T05:46:44.071Z,2.05
2024-01-08T05:49:12.106Z,2.00
2024-01-08T05:51:39.703Z,2.15
2024-01-08T05:54:07.700Z,1.55
2024-01-08T05:56:35.312Z,1.70
2024-01-08T05:59:03.075Z,2.28
2024-01-08T06:01:30.620Z,2.20
2024-01-08T06:03:58.319Z,1.65
2024-01-08T06:06:26.186Z,2.00
2024-01-08T06:08:54.106Z,2.00
2024-01-08T06:11:21.729Z,2.53
2024-01-08T06:13:49.362Z,2.10
2024-01-08T06:16:17.395Z,2.20
2024-01-08T06:18:45.301Z,1.88
2024-01-08T06:21:12.925Z,2.00
2024-01-08T06:23:40.633Z,2.72
2024-01-08T06:26:08.753Z,2.20
2024-01-08T06:28:36.427Z,2.13
2024-01-08T06:31:06.376Z,2.30
2024-01-08T06:33:35.964Z,1.98
2024-01-08T06:36:03.834Z,2.35
2024-01-08T06:38:31.607Z,2.22
2024-01-08T06:40:59.182Z,1.98
2024-01-08T06:43:26.750Z,2.03
2024-01-08T06:45:54.247Z,1.67
2024-01-08T06:48:22.029Z,2.10
2024-01-08T06:50:49.646Z,1.90
2024-01-08T06:53:17.232Z,1.80
2024-01-08T06:55:44.855Z,2.17
2024-01-08T06:58:12.498Z,1.98
2024-01-08T07:00:40.074Z,1.77
2024-01-08T07:03:07.684Z,2.00
2024-01-08T07:05:36.930Z,1.95
2024-01-08T07:08:05.041Z,2.60
2024-01-08T07:10:34.502Z,1.77
2024-01-08T07:13:02.493Z,1.95
2024-01-08T07:15:53.741Z,2.10
2024-01-08T07:18:21.487Z,2.70
2024-01-08T07:20:49.225Z,2.60
2024-01-08T07:23:17.236Z,2.00
2024-01-08T07:25:44.980Z,2.53
2024-01-08T07:28:14.276Z,2.30
2024-01-08T07:30:42.463Z,2.75
2024-01-08T07:33:10.360Z,1.90
2024-01-08T07:35:38.252Z,2.47
2024-01-08T07:38:06.134Z,2.20
2024-01-08T07:40:33.835Z,3.10
2024-01-08T07:43:01.623Z,2.38
2024-01-08T07:45:29.469Z,2.70
2024-01-08T07:47:58.605Z,3.58
2024-01-08T07:50:26.742Z,2.80
2024-01-08T07:52:54.539Z,3.05
2024-01-08T07:55:22.243Z,2.40
2024-01-08T07:57:49.887Z,2.58
2024-01-08T08:00:17.988Z,2.83
2024-01-08T08:02:46.474Z,2.20
2024-01-08T08:05:14.435Z,3.08
2024-01-08T08:07:42.155Z,3.40
2024-01-08T08:10:10.303Z,2.83
2024-01-08T08:12:38.139Z,2.65
2024-01-08T08:15:06.332Z,2.50
2024-01-08T08:17:33.968Z,2.70
2024-01-08T08:20:02.248Z,4.10
2024-01-08T08:22:30.011Z,2.70
2024-01-08T08:24:57.532Z,3.17
2024-01-08T08:27:25.221Z,3.45
2024-01-08T08:29:53.060Z,3.28
2024-01-08T08:32:20.707Z,3.28
2024-01-08T08:34:48.460Z,3.70
2024-01-08T08:37:16.049Z,3.00
2024-01-08T08:39:43.586Z,3.47
2024-01-08T08:42:11.440Z,2.92
2024-01-08T08:44:39.169Z,3.83
2024-01-08T08:47:06.968Z,3.40
2024-01-08T08:49:34.770Z,3.25
2024-01-08T08:52:04.291Z,3.55
2024-01-08T08:54:34.813Z,4.05
2024-01-08T08:57:02.491Z,5.18
2024-01-08T08:59:30.097Z,4.80
2024-01-08T09:01:59.144Z,5.38
2024-01-08T09:04:28.780Z,4.85
2024-01-08T09:06:58.704Z,4.20
2024-01-08T09:09:26.680Z,4.30
2024-01-08T09:11:54.268Z,3.88
2024-01-08T09:14:22.053Z,3.90
2024-01-08T09:16:49.718Z,4.47
2024-01-08T09:19:17.375Z,3.88
2024-01-08T09:21:49.250Z,4.20
2024-01-08T09:24:16.908Z,3.83
2024-01-08T09:26:44.736Z,2.92
2024-01-08T09:29:14.371Z,4.43
2024-01-08T09:31:42.144Z,3.85
2024-01-08T09:34:09.852Z,3.70
2024-01-08T09:36:37.520Z,4.47
2024-01-08T09:39:05.182Z,4.78
2024-01-08T09:41:33.577Z,4.40
2024-01-08T09:44:04.691Z,6.07
2024-01-08T09:46:37.188Z,4.72
2024-01-08T09:49:05.439Z,5.07
2024-01-08T09:51:33.107Z,5.35
2024-01-08T09:54:03.800Z,4.30
2024-01-08T09:56:31.676Z,4.70
2024-01-08T09:58:59.475Z,4.20
2024-01-08T10:01:27.436Z,3.88
2024-01-08T10:03:55.386Z,3.17
2024-01-08T10:06:23.493Z,3.22
2024-01-08T10:08:51.299Z,3.97
2024-01-08T10:11:19.469Z,3.33
2024-01-08T10:13:46.976Z,3.55
2024-01-08T10:16:15.684Z,3.97
2024-01-08T10:18:48.844Z,3.00
2024-01-08T10:21:17.182Z,2.83
2024-01-08T10:23:47.775Z,3.65
2024-01-08T10:26:19.184Z,3.17
2024-01-08T10:28:47.956Z,3.25
2024-01-08T10:31:15.951Z,2.30
2024-01-08T10:33:45.168Z,2.75
2024-01-08T10:36:13.221Z,3.38
2024-01-08T10:38:41.235Z,3.17
2024-01-08T10:41:09.828Z,2.88
2024-01-08T10:43:37.544Z,3.20
2024-01-08T10:46:07.963Z,2.85
2024-01-08T10:48:42.421Z,3.00
2024-01-08T10:51:10.670Z,2.55
2024-01-08T10:53:54.774Z,2.10
2024-01-08T10:56:29.506Z,2.33
2024-01-08T10:59:07.881Z,2.83
2024-01-08T11:01:37.419Z,2.00
2024-01-08T11:04:06.571Z,2.45
2024-01-08T11:06:43.810Z,2.97
2024-01-08T11:09:28.194Z,1.73
2024-01-08T11:11:56.895Z,2.40
2024-01-08T11:14:25.746Z,3.28
2024-01-08T11:16:54.170Z,5.95
2024-01-08T11:19:21.966Z,6.57
2024-01-08T11:21:51.055Z,5.88
2024-01-08T11:24:18.652Z,7.07
2024-01-08T11:26:49.115Z,6.78
2024-01-08T11:29:18.187Z,7.57
2024-01-08T11:31:52.515Z,8.77
2024-01-08T11:34:50.313Z,9.27
2024-01-08T11:37:40.910Z,4.25
2024-01-08T11:40:19.641Z,3.53
2024-01-08T11:42:51.630Z,3.53
2024-01-08T11:45:20.746Z,3.08
2024-01-08T11:47:49.292Z,3.08
2024-01-08T11:50:17.448Z,2.90
2024-01-08T11:52:45.251Z,3.05
2024-01-08T11:55:13.540Z,2.88
2024-01-08T11:57:41.149Z,2.50
2024-01-08T12:00:16.299Z,2.55
2024-01-08T12:02:44.280Z,2.53
2024-01-08T12:05:13.034Z,2.30
2024-01-08T12:07:41.011Z,2.67
2024-01-08T12:10:13.948Z,3.10
2024-01-08T12:12:42.085Z,3.30
2024-01-08T12:15:10.141Z,5.13
2024-01-08T12:17:39.282Z,3.67
2024-01-08T12:20:07.709Z,4.65
2024-01-08T12:22:35.917Z,3.95
2024-01-08T12:25:07.025Z,5.03
2024-01-08T12:27:35.510Z,5.18
2024-01-08T12:30:05.035Z,4.63
2024-01-08T12:32:33.378Z,3.63
2024-01-08T12:35:05.751Z,3.65
2024-01-08T12:37:35.156Z,4.03
2024-01-08T12:40:05.491Z,3.47
2024-01-08T12:42:37.812Z,3.65
2024-01-08T12:45:08.529Z,3.55
2024-01-08T12:47:37.008Z,4.97
2024-01-08T12:50:05.938Z,3.85
2024-01-08T12:52:33.891Z,3.15
2024-01-08T12:55:01.405Z,3.90
2024-01-08T12:57:31.816Z,4.20
2024-01-08T12:59:59.746Z,4.65
2024-01-08T13:02:30.694Z,3.95
2024-01-08T13:04:58.626Z,5.53
2024-01-08T13:07:27.574Z,4.00
2024-01-08T13:09:55.152Z,3.75
2024-01-08T13:12:22.773Z,3.28
2024-01-08T13:14:50.520Z,4.32
2024-01-08T13:17:18.087Z,4.30
2024-01-08T13:19:46.827Z,3.72
2024-01-08T13:22:14.641Z,4.28
2024-01-08T13:24:42.341Z,4.32
2024-01-08T13:27:14.845Z,5.30
2024-01-08T13:29:43.646Z,5.22
2024-01-08T13:32:16.857Z,5.07
2024-01-08T13:34:44.529Z,4.18
2024-01-08T13:37:12.040Z,5.03
2024-01-08T13:39:40.558Z,3.58
2024-01-08T13:42:10.221Z,4.07
2024-01-08T13:44:37.926Z,3.65
2024-01-08T13:47:05.939Z,4.85
2024-01-08T13:49:33.963Z,4.35
2024-01-08T13:52:01.570Z,5.57
2024-01-08T13:54:29.144Z,4.50
2024-01-08T13:56:56.950Z,5.28
2024-01-08T13:59:24.804Z,7.25
2024-01-08T14:01:55.312Z,5.40
2024-01-08T14:06:47.417Z,4.70
2024-01-08T14:09:15.316Z,6.40
2024-01-08T14:11:46.263Z,5.72
2024-01-08T14:14:16.714Z,6.13
2024-01-08T14:16:45.829Z,5.93
2024-01-08T14:19:13.415Z,6.15
2024-01-08T14:21:41.121Z,7.25
2024-01-08T14:24:08.651Z,6.20
2024-01-08T14:26:36.276Z,5.72
2024-01-08T14:29:04.112Z,5.55
2024-01-08T14:31:31.689Z,4.43
2024-01-08T14:33:59.206Z,5.63
2024-01-08T14:36:28.030Z,6.20
2024-01-08T14:38:56.705Z,5.65
2024-01-08T14:41:24.525Z,7.38
2024-01-08T14:43:52.258Z,5.93
2024-01-08T14:46:20.424Z,5.75
2024-01-08T14:48:47.996Z,5.63
2024-01-08T14:51:15.818Z,5.53
2024-01-08T14:53:43.972Z,5.50
2024-01-08T14:56:16.634Z,6.05
2024-01-08T14:58:45.793Z,6.82
2024-01-08T15:01:13.367Z,5.05
2024-01-08T15:03:44.776Z,5.88
2024-01-08T15:06:12.662Z,6.30
2024-01-08T15:08:41.133Z,6.00
2024-01-08T15:11:09.735Z,5.47
2024-01-08T15:13:37.645Z,5.78
2024-01-08T15:16:07.015Z,6.22
2024-01-08T15:18:35.032Z,4.75
2024-01-08T15:21:04.075Z,5.50
2024-01-08T15:23:34.793Z,5.03
2024-01-08T15:26:06.547Z,5.35
2024-01-08T15:28:37.984Z,5.63
2024-01-08T15:31:06.528Z,5.80
2024-01-08T15:33:34.599Z,4.18
2024-01-08T15:36:04.697Z,4.93
2024-01-08T15:38:32.248Z,5.72
2024-01-08T15:40:59.931Z,6.95
2024-01-08T15:43:27.851Z,7.57
2024-01-08T15:45:56.617Z,4.68
2024-01-08T15:48:24.270Z,6.45
2024-01-08T15:50:51.964Z,6.93
2024-01-08T15:53:23.028Z,7.15
2024-01-08T15:55:52.147Z,4.93
2024-01-08T15:58:19.903Z,8.18
2024-01-08T16:00:49.599Z,7.95
2024-01-08T16:03:17.661Z,7.25
2024-01-08T16:05:45.368Z,6.97
2024-01-08T16:08:14.782Z,6.05
2024-01-08T16:10:42.437Z,5.93
2024-01-08T16:13:11.250Z,5.95
2024-01-08T16:15:38.980Z,6.97
2024-01-08T16:18:06.769Z,7.47
2024-01-08T16:20:34.879Z,7.15
2024-01-08T16:23:02.702Z,5.18
2024-01-08T16:25:30.481Z,7.07
2024-01-08T16:27:58.310Z,6.88
2024-01-08T16:30:26.078Z,7.07
2024-01-08T16:32:54.198Z,6.57
2024-01-08T16:35:22.075Z,9.75
2024-01-08T16:37:50.107Z,8.65
2024-01-08T16:40:17.677Z,6.72
2024-01-08T16:42:46.951Z,8.07
2024-01-08T16:45:15.509Z,8.13
2024-01-08T16:47:51.434Z,8.13
2024-01-08T16:50:22.448Z,6.97
2024-01-08T16:52:50.486Z,7.65
2024-01-08T16:55:18.398Z,8.85
2024-01-08T16:57:46.316Z,6.28
2024-01-08T17:00:14.686Z,8.90
2024-01-08T17:02:42.445Z,9.13
2024-01-08T17:05:10.496Z,8.52
2024-01-08T17:07:38.328Z,8.93
2024-01-08T17:10:06.320Z,7.03
2024-01-08T17:12:33.882Z,8.32
2024-01-08T17:15:01.534Z,9.02
2024-01-08T17:17:29.467Z,10.27
2024-01-08T17:19:58.969Z,12.30
2024-01-08T17:22:26.748Z,9.43
2024-01-08T17:24:54.382Z,9.75
2024-01-08T17:27:21.889Z,10.88
2024-01-08T17:29:49.660Z,11.70
2024-01-08T17:32:17.430Z,10.13
2024-01-08T17:34:45.501Z,11.02
2024-01-08T17:37:14.779Z,11.02
2024-01-08T17:39:45.324Z,10.48
2024-01-08T17:42:13.957Z,17.52
2024-01-08T17:44:42.081Z,15.38
2024-01-08T17:47:10.253Z,14.82
2024-01-08T17:49:38.971Z,11.98
2024-01-08T17:52:07.184Z,17.17
2024-01-08T17:54:35.356Z,16.85
2024-01-08T17:57:04.212Z,15.77
2024-01-08T17:59:33.646Z,16.15
2024-01-08T18:02:01.468Z,13.50
2024-01-08T18:04:29.184Z,13.70
2024-01-08T18:06:58.521Z,15.93
2024-01-08T18:09:26.431Z,15.13
2024-01-08T18:11:54.365Z,14.98
2024-01-08T18:14:22.567Z,19.33
2024-01-08T18:16:51.834Z,16.67
2024-01-08T18:19:19.520Z,13.15
2024-01-08T18:21:47.401Z,16.15
2024-01-08T18:24:23.597Z,22.45
2024-01-08T18:26:58.557Z,28.90
2024-01-08T18:29:26.344Z,23.23
2024-01-08T18:31:54.008Z,17.00
2024-01-08T18:34:21.620Z,20.58
2024-01-08T18:36:49.358Z,18.20
2024-01-08T18:39:20.556Z,16.75
2024-01-08T18:41:49.821Z,18.23
2024-01-08T18:44:18.706Z,23.38
2024-01-08T18:46:46.568Z,18.45
2024-01-08T18:49:14.648Z,23.25
2024-01-08T18:51:42.421Z,23.20
2024-01-08T18:54:09.955Z,20.70
2024-01-08T18:56:37.996Z,24.42
2024-01-08T18:59:05.701Z,21.77
2024-01-08T19:01:33.464Z,18.95
2024-01-08T19:04:02.150Z,27.70
2024-01-08T19:06:30.793Z,27.25
2024-01-08T19:08:58.765Z,19.27
2024-01-08T19:11:26.493Z,26.65
2024-01-08T19:13:54.092Z,26.17
2024-01-08T19:16:22.407Z,31.15
2024-01-08T19:18:50.800Z,33.03
2024-01-08T19:21:18.785Z,24.05
2024-01-08T19:23:46.389Z,22.80
2024-01-08T19:26:14.183Z,23.73
2024-01-08T19:28:41.718Z,21.50
2024-01-08T19:31:10.151Z,25.52
2024-01-08T19:33:38.020Z,18.40
2024-01-08T19:36:06.104Z,25.15
2024-01-08T19:38:34.269Z,22.42
2024-01-08T19:41:01.912Z,19.70
2024-01-08T19:43:29.395Z,16.13
2024-01-08T19:45:57.075Z,19.67
2024-01-08T19:48:24.833Z,21.58
2024-01-08T19:50:52.586Z,27.83
2024-01-08T19:53:20.683Z,19.15
2024-01-08T19:55:48.295Z,19.58
2024-01-08T19:58:15.823Z,22.85
2024-01-08T20:00:43.438Z,20.65
2024-01-08T20:03:10.943Z,28.23
2024-01-08T20:05:39.076Z,22.02
2024-01-08T20:08:07.200Z,18.25
2024-01-08T20:10:34.889Z,18.02
2024-01-08T20:13:04.338Z,17.90
2024-01-08T20:15:32.790Z,16.10
2024-01-08T20:18:00.675Z,20.38
2024-01-08T20:20:28.851Z,26.75
2024-01-08T20:22:56.668Z,20.13
2024-01-08T20:25:24.237Z,19.33
2024-01-08T20:27:52.003Z,25.50
2024-01-08T20:30:19.741Z,24.90
2024-01-08T20:32:49.455Z,22.40
2024-01-08T20:35:17.629Z,18.48
2024-01-08T20:37:45.303Z,23.25
2024-01-08T20:40:13.471Z,22.33
2024-01-08T20:42:41.153Z,23.00
2024-01-08T20:45:09.194Z,26.02
2024-01-08T20:47:36.876Z,20.50
2024-01-08T20:50:05.299Z,21.30
2024-01-08T20:52:32.994Z,20.50
2024-01-08T20:55:00.594Z,25.90
2024-01-08T20:57:28.265Z,19.70
2024-01-08T20:59:55.966Z,20.48
2024-01-08T21:02:23.518Z,17.65
2024-01-08T21:04:51.357Z,22.58
2024-01-08T21:07:18.880Z,16.73
2024-01-08T21:09:47.659Z,17.23
2024-01-08T21:12:15.619Z,14.93
2024-01-08T21:14:43.383Z,11.77
2024-01-08T21:17:11.491Z,13.52
2024-01-08T21:19:39.375Z,14.82
2024-01-08T21:22:08.092Z,11.98
2024-01-08T21:24:35.787Z,10.27
2024-01-08T21:27:03.578Z,10.07
2024-01-08T21:29:31.787Z,11.32
2024-01-08T21:32:00.614Z,12.60
2024-01-08T21:34:28.209Z,10.00
2024-01-08T21:36:56.357Z,8.23
2024-01-08T21:39:23.969Z,7.53
2024-01-08T21:41:51.647Z,11.48
2024-01-08T21:44:19.330Z,7.13
2024-01-08T21:46:47.158Z,7.72
2024-01-08T21:49:14.723Z,7.45
2024-01-08T21:51:42.332Z,7.35
2024-01-08T21:54:09.962Z,7.20
2024-01-08T21:56:37.554Z,6.40
2024-01-08T21:59:06.243Z,7.18
2024-01-08T22:01:33.806Z,6.40
2024-01-08T22:04:01.522Z,6.60
2024-01-08T22:06:29.371Z,6.75
2024-01-08T22:08:57.277Z,6.47
2024-01-08T22:11:24.863Z,7.50
2024-01-08T22:13:52.569Z,6.70
2024-01-08T22:16:20.100Z,5.93
2024-01-08T22:18:47.687Z,6.28
2024-01-08T22:21:15.377Z,6.50
2024-01-08T22:23:43.052Z,6.25
2024-01-08T22:26:10.840Z,5.53
2024-01-08T22:28:38.593Z,6.20
2024-01-08T22:31:06.980Z,5.78
2024-01-08T22:33:34.757Z,5.03
2024-01-08T22:36:02.423Z,4.13
2024-01-08T22:38:30.501Z,6.40
2024-01-08T22:40:58.145Z,4.72
2024-01-08T22:43:25.919Z,5.10
2024-01-08T22:45:53.411Z,4.93
2024-01-08T22:48:21.289Z,4.50
2024-01-08T22:50:49.041Z,5.50
2024-01-08T22:53:16.638Z,4.05
2024-01-08T22:55:44.274Z,4.25
2024-01-08T22:58:12.074Z,3.28
2024-01-08T23:00:40.203Z,3.10
2024-01-08T23:03:07.964Z,4.40
2024-01-08T23:05:35.768Z,3.20
2024-01-08T23:08:03.557Z,3.05
2024-01-08T23:10:31.126Z,4.18
2024-01-08T23:12:58.964Z,3.35
2024-01-08T23:15:26.465Z,3.30
2024-01-08T23:17:54.166Z,4.10
2024-01-08T23:20:21.824Z,3.10
2024-01-08T23:22:51.547Z,3.03
2024-01-08T23:25:19.326Z,4.05
2024-01-08T23:27:47.015Z,3.55
2024-01-08T23:30:14.717Z,3.35
2024-01-08T23:32:42.415Z,4.00
2024-01-08T23:35:10.168Z,3.35
2024-01-08T23:37:37.840Z,3.53
2024-01-08T23:40:05.924Z,3.22
2024-01-08T23:42:33.477Z,3.25
2024-01-08T23:45:01.075Z,2.58
2024-01-08T23:47:28.714Z,2.90
2024-01-08T23:49:56.366Z,4.10
2024-01-08T23:52:24.279Z,3.70
2024-01-08T23:54:52.049Z,3.22
2024-01-08T23:57:19.721Z,3.45
2024-01-08T23:59:47.366Z,3.70
